Detall de PIREP

Printer-friendly versionPDF version

[2017/06/18 06:17:00]
Flight IATA:CT2100
Pilot Number:041
Company ICAO:CAT
Aircraft Type:F70/A
PAX:60
Aircraft Registration:PFJ
Departing Airport: LEVC
Destination Airport: LEAS
Alternate Airport:LEMD
Online: VATSIM
Route:CENTA A33 PRADO UN733 ZMR UM30 ROVAK R107 XONDA
Flight Level:FL330
No Slew and time accel
No pause
Crash detect
Detect pilot in Cockpit between each 30 and 45 minutes
06:17 Zero fuel Weight: 72668 Lbs, Fuel Weight: 11302 Lbs
06:17 VATSIM:LEVC 180600Z 33003KT 300V010 9999 FEW030 24/19 Q1015 NOSIG
06:17 VATSIM:LEAS 180600Z VRB01KT CAVOK 16/16 Q1015 NOSIG
06:18 VOICE CATALONIAN
06:20 Parking Brakes off
06:24 Take-off
06:24 Take off Weight: 83596 Lbs
06:24 Wind: 073º @ 009 Knots Heading: 295º
06:24 POS N39º 29´ 28´´ W000º 29´ 13´´
06:24 Gear Up: 171 Knots
06:24 Flaps:2 at 172 Knots
06:24 Flaps:1 at 197 Knots
06:24 Flaps:0 at 210 Knots
06:39 Wind:311º@025 Knots Heading: 299º Ground Speed: 360 Knots Altitude 26151 ft
06:45 TOC
06:45 Fuel Weight: 8674 Lb
06:54 Wind:270º@034 Knots Heading: 294º Ground Speed: 386 Knots Altitude 33001 ft
07:05 TOD
07:05 Fuel Weight: 7294 Lb
07:09 Wind:327º@036 Knots Heading: 342º Ground Speed: 380 Knots Altitude 30075 ft
07:24 Wind:270º@034 Knots Heading: 346º Ground Speed: 296 Knots Altitude 12818 ft
07:29 Flaps:1 at 237 Knots
07:33 Flaps:2 at 196 Knots
07:33 Flaps:3 at 189 Knots
07:34 Gear Down: 185 Knots
07:34 Flaps:4 at 152 Knots
07:37 TouchDown:Rate -218 ft/min Speed: 117 Knots
07:37 VATSIM:LEAS 180700Z 00000KT CAVOK 20/17 Q1015 NOSIG
07:37 Land
07:37 Wind:289º@011 Knots
07:37 Heading: 290º
07:37 Flight Duration: 01:13
07:37 Landing Weight: 78405 Lbs
07:37 POS N43º 33´ 46´´ W006º 01´ 55´´
07:39 Parking brakes on
07:39 Block to Block Duration: 01:19
07:39 FinalFuel: 5654 Lbls
07:39 Spent Fuel: 5648 Lbls
07:39 Flight Length: 400 NM
07:39 TOD Land Length: 158 NM

Exportar CSV

Powered by Drupal - Modified by Danger4k